sensor_id;sensor_type;location;lat;lon;timestamp;temperature;humidity
28484;DHT22;15704;48.834;8.736;2022-09-09T00:02:02;14.70;99.90
28484;DHT22;15704;48.834;8.736;2022-09-09T00:05:53;14.80;99.90
28484;DHT22;15704;48.834;8.736;2022-09-09T00:09:45;14.80;99.90
28484;DHT22;15704;48.834;8.736;2022-09-09T00:13:34;14.90;99.90
28484;DHT22;15704;48.834;8.736;2022-09-09T00:17:33;15.00;99.90
28484;DHT22;15704;48.834;8.736;2022-09-09T00:21:18;15.20;99.90
28484;DHT22;15704;48.834;8.736;2022-09-09T00:25:11;15.40;99.90
28484;DHT22;15704;48.834;8.736;2022-09-09T00:28:58;15.50;99.90
28484;DHT22;15704;48.834;8.736;2022-09-09T00:32:43;15.50;99.90
28484;DHT22;15704;48.834;8.736;2022-09-09T00:36:27;15.50;99.90
28484;DHT22;15704;48.834;8.736;2022-09-09T00:40:24;15.50;99.90
28484;DHT22;15704;48.834;8.736;2022-09-09T00:44:20;15.50;99.90
28484;DHT22;15704;48.834;8.736;2022-09-09T00:48:09;15.40;99.90
28484;DHT22;15704;48.834;8.736;2022-09-09T00:52:02;15.40;99.90
28484;DHT22;15704;48.834;8.736;2022-09-09T00:55:56;15.40;99.90
28484;DHT22;15704;48.834;8.736;2022-09-09T00:59:47;15.30;99.90
28484;DHT22;15704;48.834;8.736;2022-09-09T01:03:34;15.40;99.90
28484;DHT22;15704;48.834;8.736;2022-09-09T01:07:18;15.50;99.90
28484;DHT22;15704;48.834;8.736;2022-09-09T01:11:03;15.50;99.90
28484;DHT22;15704;48.834;8.736;2022-09-09T01:14:48;15.50;99.90
28484;DHT22;15704;48.834;8.736;2022-09-09T01:18:36;15.60;99.90
28484;DHT22;15704;48.834;8.736;2022-09-09T01:22:26;15.60;99.90
28484;DHT22;15704;48.834;8.736;2022-09-09T01:26:24;15.70;99.90
28484;DHT22;15704;48.834;8.736;2022-09-09T01:30:10;15.70;99.90
28484;DHT22;15704;48.834;8.736;2022-09-09T01:33:53;15.80;99.90
28484;DHT22;15704;48.834;8.736;2022-09-09T01:37:36;16.00;99.90
28484;DHT22;15704;48.834;8.736;2022-09-09T01:41:20;15.80;99.90
28484;DHT22;15704;48.834;8.736;2022-09-09T01:45:04;15.30;99.90
28484;DHT22;15704;48.834;8.736;2022-09-09T01:48:48;15.10;99.90
28484;DHT22;15704;48.834;8.736;2022-09-09T01:52:34;15.00;99.90
28484;DHT22;15704;48.834;8.736;2022-09-09T01:56:28;15.00;99.90
28484;DHT22;15704;48.834;8.736;2022-09-09T02:00:15;14.90;99.90
28484;DHT22;15704;48.834;8.736;2022-09-09T02:03:59;14.80;99.90
28484;DHT22;15704;48.834;8.736;2022-09-09T02:07:48;14.60;99.90
28484;DHT22;15704;48.834;8.736;2022-09-09T02:11:33;14.50;99.90
28484;DHT22;15704;48.834;8.736;2022-09-09T02:15:20;14.40;99.90
28484;DHT22;15704;48.834;8.736;2022-09-09T02:19:09;14.40;99.90
28484;DHT22;15704;48.834;8.736;2022-09-09T02:22:54;14.40;99.90
28484;DHT22;15704;48.834;8.736;2022-09-09T02:26:41;14.50;99.90
28484;DHT22;15704;48.834;8.736;2022-09-09T02:30:25;14.50;99.90
28484;DHT22;15704;48.834;8.736;2022-09-09T02:34:09;14.50;99.90
28484;DHT22;15704;48.834;8.736;2022-09-09T02:37:55;14.50;99.90
28484;DHT22;15704;48.834;8.736;2022-09-09T02:41:42;14.50;99.90
28484;DHT22;15704;48.834;8.736;2022-09-09T02:45:27;14.50;99.90
28484;DHT22;15704;48.834;8.736;2022-09-09T02:49:18;14.40;99.90
28484;DHT22;15704;48.834;8.736;2022-09-09T02:53:07;14.20;99.90
28484;DHT22;15704;48.834;8.736;2022-09-09T02:56:54;14.10;99.90
28484;DHT22;15704;48.834;8.736;2022-09-09T03:00:37;14.00;99.90
28484;DHT22;15704;48.834;8.736;2022-09-09T03:04:21;13.90;99.90
28484;DHT22;15704;48.834;8.736;2022-09-09T03:08:05;13.90;99.90
28484;DHT22;15704;48.834;8.736;2022-09-09T03:11:48;13.80;99.90
28484;DHT22;15704;48.834;8.736;2022-09-09T03:15:33;13.70;99.90
28484;DHT22;15704;48.834;8.736;2022-09-09T03:19:16;13.60;99.90
28484;DHT22;15704;48.834;8.736;2022-09-09T03:23:00;13.60;99.90
28484;DHT22;15704;48.834;8.736;2022-09-09T03:26:43;13.50;99.90
28484;DHT22;15704;48.834;8.736;2022-09-09T03:30:27;13.40;99.90
28484;DHT22;15704;48.834;8.736;2022-09-09T03:34:11;13.30;99.90
28484;DHT22;15704;48.834;8.736;2022-09-09T03:37:55;13.20;99.90
28484;DHT22;15704;48.834;8.736;2022-09-09T03:41:38;13.10;99.90
28484;DHT22;15704;48.834;8.736;2022-09-09T03:45:20;13.00;99.90
28484;DHT22;15704;48.834;8.736;2022-09-09T03:49:03;13.00;99.90
28484;DHT22;15704;48.834;8.736;2022-09-09T03:52:47;12.90;99.90
28484;DHT22;15704;48.834;8.736;2022-09-09T03:56:30;12.90;99.90
28484;DHT22;15704;48.834;8.736;2022-09-09T04:00:13;13.00;99.90
28484;DHT22;15704;48.834;8.736;2022-09-09T04:03:55;13.10;99.90
28484;DHT22;15704;48.834;8.736;2022-09-09T04:07:39;13.30;99.90
28484;DHT22;15704;48.834;8.736;2022-09-09T04:11:23;13.50;99.90
28484;DHT22;15704;48.834;8.736;2022-09-09T04:15:07;13.80;99.90
28484;DHT22;15704;48.834;8.736;2022-09-09T04:18:49;13.90;99.90
28484;DHT22;15704;48.834;8.736;2022-09-09T04:22:34;13.90;99.90
28484;DHT22;15704;48.834;8.736;2022-09-09T04:26:17;13.80;99.90
28484;DHT22;15704;48.834;8.736;2022-09-09T04:30:01;13.70;99.90
28484;DHT22;15704;48.834;8.736;2022-09-09T04:33:43;13.50;99.90
28484;DHT22;15704;48.834;8.736;2022-09-09T04:37:26;13.40;99.90
28484;DHT22;15704;48.834;8.736;2022-09-09T04:41:08;13.20;99.90
28484;DHT22;15704;48.834;8.736;2022-09-09T04:44:52;13.20;99.90
28484;DHT22;15704;48.834;8.736;2022-09-09T04:48:36;13.20;99.90
28484;DHT22;15704;48.834;8.736;2022-09-09T04:52:19;13.20;99.90
28484;DHT22;15704;48.834;8.736;2022-09-09T04:56:03;13.20;99.90
28484;DHT22;15704;48.834;8.736;2022-09-09T04:59:47;13.20;99.90
28484;DHT22;15704;48.834;8.736;2022-09-09T05:03:29;13.20;99.90
28484;DHT22;15704;48.834;8.736;2022-09-09T05:07:13;13.20;99.90
28484;DHT22;15704;48.834;8.736;2022-09-09T05:10:56;13.30;99.90
28484;DHT22;15704;48.834;8.736;2022-09-09T05:14:39;13.30;99.90
28484;DHT22;15704;48.834;8.736;2022-09-09T05:18:22;13.30;99.90
28484;DHT22;15704;48.834;8.736;2022-09-09T05:22:04;13.40;99.90
28484;DHT22;15704;48.834;8.736;2022-09-09T05:25:56;13.50;99.90
28484;DHT22;15704;48.834;8.736;2022-09-09T05:29:39;13.70;99.90
28484;DHT22;15704;48.834;8.736;2022-09-09T05:33:25;13.90;99.90
28484;DHT22;15704;48.834;8.736;2022-09-09T05:37:08;14.00;99.90
28484;DHT22;15704;48.834;8.736;2022-09-09T05:40:50;14.10;99.90
28484;DHT22;15704;48.834;8.736;2022-09-09T05:44:35;14.30;99.90
28484;DHT22;15704;48.834;8.736;2022-09-09T05:48:18;14.40;99.90
28484;DHT22;15704;48.834;8.736;2022-09-09T05:52:01;14.40;99.90
28484;DHT22;15704;48.834;8.736;2022-09-09T05:55:45;14.40;99.90
28484;DHT22;15704;48.834;8.736;2022-09-09T05:59:29;14.30;99.90
28484;DHT22;15704;48.834;8.736;2022-09-09T06:03:14;14.30;99.90
28484;DHT22;15704;48.834;8.736;2022-09-09T06:06:58;14.30;99.90
28484;DHT22;15704;48.834;8.736;2022-09-09T06:10:41;14.30;99.90
28484;DHT22;15704;48.834;8.736;2022-09-09T06:14:24;14.40;99.90
28484;DHT22;15704;48.834;8.736;2022-09-09T06:18:08;14.50;99.90
28484;DHT22;15704;48.834;8.736;2022-09-09T06:21:52;14.60;99.90
28484;DHT22;15704;48.834;8.736;2022-09-09T06:25:36;14.80;99.90
28484;DHT22;15704;48.834;8.736;2022-09-09T06:29:21;15.00;99.90
28484;DHT22;15704;48.834;8.736;2022-09-09T06:33:04;15.40;99.90
28484;DHT22;15704;48.834;8.736;2022-09-09T06:36:47;15.70;99.90
28484;DHT22;15704;48.834;8.736;2022-09-09T06:40:31;15.90;99.90
28484;DHT22;15704;48.834;8.736;2022-09-09T06:44:14;16.30;99.90
28484;DHT22;15704;48.834;8.736;2022-09-09T06:47:56;16.50;99.90
28484;DHT22;15704;48.834;8.736;2022-09-09T06:51:39;16.50;99.90
28484;DHT22;15704;48.834;8.736;2022-09-09T06:55:24;16.30;99.90
28484;DHT22;15704;48.834;8.736;2022-09-09T06:59:08;16.30;99.90
28484;DHT22;15704;48.834;8.736;2022-09-09T07:02:52;16.30;99.90
28484;DHT22;15704;48.834;8.736;2022-09-09T07:06:35;16.50;99.90
28484;DHT22;15704;48.834;8.736;2022-09-09T07:10:18;16.80;99.90
28484;DHT22;15704;48.834;8.736;2022-09-09T07:14:01;17.00;99.90
28484;DHT22;15704;48.834;8.736;2022-09-09T07:17:45;17.30;99.90
28484;DHT22;15704;48.834;8.736;2022-09-09T07:21:29;17.40;99.90
28484;DHT22;15704;48.834;8.736;2022-09-09T07:25:12;17.70;99.90
28484;DHT22;15704;48.834;8.736;2022-09-09T07:28:55;18.10;99.90
28484;DHT22;15704;48.834;8.736;2022-09-09T07:32:38;18.10;99.90
28484;DHT22;15704;48.834;8.736;2022-09-09T07:36:24;18.10;99.90
28484;DHT22;15704;48.834;8.736;2022-09-09T07:40:13;18.00;99.90
28484;DHT22;15704;48.834;8.736;2022-09-09T07:43:56;18.20;99.90
28484;DHT22;15704;48.834;8.736;2022-09-09T07:47:39;18.20;99.90
28484;DHT22;15704;48.834;8.736;2022-09-09T07:51:26;18.00;99.90
28484;DHT22;15704;48.834;8.736;2022-09-09T07:55:09;17.80;99.90
28484;DHT22;15704;48.834;8.736;2022-09-09T07:58:54;17.90;99.90
28484;DHT22;15704;48.834;8.736;2022-09-09T08:02:36;18.10;99.90
28484;DHT22;15704;48.834;8.736;2022-09-09T08:06:19;18.20;99.90
28484;DHT22;15704;48.834;8.736;2022-09-09T08:10:05;18.50;99.90
28484;DHT22;15704;48.834;8.736;2022-09-09T08:13:49;18.50;99.90
28484;DHT22;15704;48.834;8.736;2022-09-09T08:17:36;18.70;99.90
28484;DHT22;15704;48.834;8.736;2022-09-09T08:21:21;18.80;99.90
28484;DHT22;15704;48.834;8.736;2022-09-09T08:25:06;18.60;99.90
28484;DHT22;15704;48.834;8.736;2022-09-09T08:28:53;18.30;99.90
28484;DHT22;15704;48.834;8.736;2022-09-09T08:32:37;18.20;99.90
28484;DHT22;15704;48.834;8.736;2022-09-09T08:36:25;18.20;99.90
28484;DHT22;15704;48.834;8.736;2022-09-09T08:40:19;18.30;99.90
28484;DHT22;15704;48.834;8.736;2022-09-09T08:44:07;18.40;99.90
28484;DHT22;15704;48.834;8.736;2022-09-09T08:48:02;18.40;99.90
28484;DHT22;15704;48.834;8.736;2022-09-09T08:51:48;18.60;99.90
28484;DHT22;15704;48.834;8.736;2022-09-09T08:55:39;19.20;99.90
28484;DHT22;15704;48.834;8.736;2022-09-09T08:59:24;19.70;99.90
28484;DHT22;15704;48.834;8.736;2022-09-09T09:03:15;20.30;99.90
28484;DHT22;15704;48.834;8.736;2022-09-09T09:07:06;20.80;99.90
28484;DHT22;15704;48.834;8.736;2022-09-09T09:10:56;21.20;99.90
28484;DHT22;15704;48.834;8.736;2022-09-09T09:14:43;21.90;99.90
28484;DHT22;15704;48.834;8.736;2022-09-09T09:18:28;22.10;99.90
28484;DHT22;15704;48.834;8.736;2022-09-09T09:22:17;22.20;99.90
28484;DHT22;15704;48.834;8.736;2022-09-09T09:26:07;22.20;99.90
28484;DHT22;15704;48.834;8.736;2022-09-09T09:29:54;21.80;99.90
28484;DHT22;15704;48.834;8.736;2022-09-09T09:34:00;21.50;99.90
28484;DHT22;15704;48.834;8.736;2022-09-09T09:37:43;20.10;99.90
28484;DHT22;15704;48.834;8.736;2022-09-09T09:41:48;19.20;99.90
28484;DHT22;15704;48.834;8.736;2022-09-09T09:45:35;18.50;99.90
28484;DHT22;15704;48.834;8.736;2022-09-09T09:49:35;18.40;99.90
28484;DHT22;15704;48.834;8.736;2022-09-09T09:53:22;18.00;99.90
28484;DHT22;15704;48.834;8.736;2022-09-09T09:57:12;18.10;99.90
28484;DHT22;15704;48.834;8.736;2022-09-09T10:00:56;18.60;99.90
28484;DHT22;15704;48.834;8.736;2022-09-09T10:04:39;18.70;99.90
28484;DHT22;15704;48.834;8.736;2022-09-09T10:08:23;18.70;99.90
28484;DHT22;15704;48.834;8.736;2022-09-09T10:12:17;18.70;99.90
28484;DHT22;15704;48.834;8.736;2022-09-09T10:16:09;18.90;99.90
28484;DHT22;15704;48.834;8.736;2022-09-09T10:20:13;18.90;99.90
28484;DHT22;15704;48.834;8.736;2022-09-09T10:24:13;18.90;99.90
28484;DHT22;15704;48.834;8.736;2022-09-09T10:28:28;18.10;99.90
28484;DHT22;15704;48.834;8.736;2022-09-09T10:32:33;17.60;99.90
28484;DHT22;15704;48.834;8.736;2022-09-09T10:36:21;17.70;99.90
28484;DHT22;15704;48.834;8.736;2022-09-09T10:40:19;17.90;99.90
28484;DHT22;15704;48.834;8.736;2022-09-09T10:44:21;18.00;99.90
28484;DHT22;15704;48.834;8.736;2022-09-09T10:48:16;17.50;99.90
28484;DHT22;15704;48.834;8.736;2022-09-09T10:52:08;17.20;99.90
28484;DHT22;15704;48.834;8.736;2022-09-09T10:55:57;16.60;99.90
28484;DHT22;15704;48.834;8.736;2022-09-09T10:59:48;16.20;99.90
28484;DHT22;15704;48.834;8.736;2022-09-09T11:03:33;16.20;99.90
28484;DHT22;15704;48.834;8.736;2022-09-09T11:07:27;16.10;99.90
28484;DHT22;15704;48.834;8.736;2022-09-09T11:11:13;16.10;99.90
28484;DHT22;15704;48.834;8.736;2022-09-09T11:15:05;15.90;99.90
28484;DHT22;15704;48.834;8.736;2022-09-09T11:18:48;15.90;99.90
28484;DHT22;15704;48.834;8.736;2022-09-09T11:22:33;15.90;99.90
28484;DHT22;15704;48.834;8.736;2022-09-09T11:26:29;15.90;99.90
28484;DHT22;15704;48.834;8.736;2022-09-09T11:30:18;16.00;99.90
28484;DHT22;15704;48.834;8.736;2022-09-09T11:34:38;16.30;99.90
28484;DHT22;15704;48.834;8.736;2022-09-09T11:38:26;16.90;99.90
28484;DHT22;15704;48.834;8.736;2022-09-09T11:42:16;17.50;99.90
28484;DHT22;15704;48.834;8.736;2022-09-09T11:46:02;18.10;99.90
28484;DHT22;15704;48.834;8.736;2022-09-09T11:49:45;18.60;99.90
28484;DHT22;15704;48.834;8.736;2022-09-09T11:53:28;18.80;99.90
28484;DHT22;15704;48.834;8.736;2022-09-09T11:57:23;19.20;99.90
28484;DHT22;15704;48.834;8.736;2022-09-09T12:01:28;18.90;99.90
28484;DHT22;15704;48.834;8.736;2022-09-09T12:05:13;18.70;99.90
28484;DHT22;15704;48.834;8.736;2022-09-09T12:13:08;18.50;99.90
28484;DHT22;15704;48.834;8.736;2022-09-09T12:16:52;18.30;99.90
28484;DHT22;15704;48.834;8.736;2022-09-09T12:20:36;18.50;99.90
28484;DHT22;15704;48.834;8.736;2022-09-09T12:24:26;18.50;99.90
28484;DHT22;15704;48.834;8.736;2022-09-09T12:28:14;18.60;99.90
28484;DHT22;15704;48.834;8.736;2022-09-09T12:32:05;18.80;99.90
28484;DHT22;15704;48.834;8.736;2022-09-09T12:35:55;18.70;99.90
28484;DHT22;15704;48.834;8.736;2022-09-09T12:39:43;18.90;99.90
28484;DHT22;15704;48.834;8.736;2022-09-09T12:43:28;19.00;99.90
28484;DHT22;15704;48.834;8.736;2022-09-09T12:47:13;19.00;99.90
28484;DHT22;15704;48.834;8.736;2022-09-09T12:50:56;19.00;99.90
28484;DHT22;15704;48.834;8.736;2022-09-09T12:54:43;19.10;99.90
28484;DHT22;15704;48.834;8.736;2022-09-09T12:58:29;19.20;99.90
28484;DHT22;15704;48.834;8.736;2022-09-09T13:02:24;19.50;99.90
28484;DHT22;15704;48.834;8.736;2022-09-09T13:06:12;19.80;99.90
28484;DHT22;15704;48.834;8.736;2022-09-09T13:09:55;19.80;99.90
28484;DHT22;15704;48.834;8.736;2022-09-09T13:13:40;19.80;99.90
28484;DHT22;15704;48.834;8.736;2022-09-09T13:17:25;19.80;99.90
28484;DHT22;15704;48.834;8.736;2022-09-09T13:21:10;20.00;99.90
28484;DHT22;15704;48.834;8.736;2022-09-09T13:25:05;20.30;99.90
28484;DHT22;15704;48.834;8.736;2022-09-09T13:28:49;20.00;99.90
28484;DHT22;15704;48.834;8.736;2022-09-09T13:32:33;20.30;99.90
28484;DHT22;15704;48.834;8.736;2022-09-09T13:36:16;20.20;99.90
28484;DHT22;15704;48.834;8.736;2022-09-09T13:40:01;20.20;99.90
28484;DHT22;15704;48.834;8.736;2022-09-09T13:43:45;20.60;99.90
28484;DHT22;15704;48.834;8.736;2022-09-09T13:47:31;21.10;99.90
28484;DHT22;15704;48.834;8.736;2022-09-09T13:51:35;21.70;99.90
28484;DHT22;15704;48.834;8.736;2022-09-09T13:55:18;22.00;99.90
28484;DHT22;15704;48.834;8.736;2022-09-09T13:59:03;21.70;99.90
28484;DHT22;15704;48.834;8.736;2022-09-09T14:02:46;21.20;99.90
28484;DHT22;15704;48.834;8.736;2022-09-09T14:06:30;21.50;99.90
28484;DHT22;15704;48.834;8.736;2022-09-09T14:10:13;21.50;99.90
28484;DHT22;15704;48.834;8.736;2022-09-09T14:13:56;21.10;99.90
28484;DHT22;15704;48.834;8.736;2022-09-09T14:17:39;21.30;99.90
28484;DHT22;15704;48.834;8.736;2022-09-09T14:21:21;21.50;99.90
28484;DHT22;15704;48.834;8.736;2022-09-09T14:25:06;21.80;99.90
28484;DHT22;15704;48.834;8.736;2022-09-09T14:28:50;21.90;99.90
28484;DHT22;15704;48.834;8.736;2022-09-09T14:32:36;21.70;99.90
28484;DHT22;15704;48.834;8.736;2022-09-09T14:36:19;22.00;99.90
28484;DHT22;15704;48.834;8.736;2022-09-09T14:40:01;21.80;99.90
28484;DHT22;15704;48.834;8.736;2022-09-09T14:43:46;22.20;99.90
28484;DHT22;15704;48.834;8.736;2022-09-09T14:47:28;22.00;99.90
28484;DHT22;15704;48.834;8.736;2022-09-09T14:51:13;21.90;99.90
28484;DHT22;15704;48.834;8.736;2022-09-09T14:54:57;21.50;99.90
28484;DHT22;15704;48.834;8.736;2022-09-09T14:58:39;21.30;99.90
28484;DHT22;15704;48.834;8.736;2022-09-09T15:02:23;21.40;99.90
28484;DHT22;15704;48.834;8.736;2022-09-09T15:06:07;21.60;99.90
28484;DHT22;15704;48.834;8.736;2022-09-09T15:09:50;21.80;99.90
28484;DHT22;15704;48.834;8.736;2022-09-09T15:13:34;21.90;99.90
28484;DHT22;15704;48.834;8.736;2022-09-09T15:17:18;21.90;99.90
28484;DHT22;15704;48.834;8.736;2022-09-09T15:21:03;21.50;99.90
28484;DHT22;15704;48.834;8.736;2022-09-09T15:24:46;20.90;99.90
28484;DHT22;15704;48.834;8.736;2022-09-09T15:28:29;20.40;99.90
28484;DHT22;15704;48.834;8.736;2022-09-09T15:32:13;20.10;99.90
28484;DHT22;15704;48.834;8.736;2022-09-09T15:35:56;19.80;99.90
28484;DHT22;15704;48.834;8.736;2022-09-09T15:39:40;19.30;99.90
28484;DHT22;15704;48.834;8.736;2022-09-09T15:43:22;18.90;99.90
28484;DHT22;15704;48.834;8.736;2022-09-09T15:47:05;18.70;99.90
28484;DHT22;15704;48.834;8.736;2022-09-09T15:51:01;18.50;99.90
28484;DHT22;15704;48.834;8.736;2022-09-09T15:55:06;16.10;99.90
28484;DHT22;15704;48.834;8.736;2022-09-09T15:58:49;15.20;99.90
28484;DHT22;15704;48.834;8.736;2022-09-09T16:02:33;14.80;99.90
28484;DHT22;15704;48.834;8.736;2022-09-09T16:06:16;14.80;99.90
28484;DHT22;15704;48.834;8.736;2022-09-09T16:10:00;15.00;99.90
28484;DHT22;15704;48.834;8.736;2022-09-09T16:13:44;15.00;99.90
28484;DHT22;15704;48.834;8.736;2022-09-09T16:17:31;15.10;99.90
28484;DHT22;15704;48.834;8.736;2022-09-09T16:21:20;15.30;99.90
28484;DHT22;15704;48.834;8.736;2022-09-09T16:25:05;15.60;99.90
28484;DHT22;15704;48.834;8.736;2022-09-09T16:28:50;16.00;99.90
28484;DHT22;15704;48.834;8.736;2022-09-09T16:32:35;16.40;99.90
28484;DHT22;15704;48.834;8.736;2022-09-09T16:36:19;16.60;99.90
28484;DHT22;15704;48.834;8.736;2022-09-09T16:40:03;16.90;99.90
28484;DHT22;15704;48.834;8.736;2022-09-09T16:43:46;16.90;99.90
28484;DHT22;15704;48.834;8.736;2022-09-09T16:47:30;16.70;99.90
28484;DHT22;15704;48.834;8.736;2022-09-09T16:51:14;16.30;99.90
28484;DHT22;15704;48.834;8.736;2022-09-09T16:54:57;16.00;99.90
28484;DHT22;15704;48.834;8.736;2022-09-09T16:58:40;15.90;99.90
28484;DHT22;15704;48.834;8.736;2022-09-09T17:02:24;15.70;99.90
28484;DHT22;15704;48.834;8.736;2022-09-09T17:06:10;15.60;99.90
28484;DHT22;15704;48.834;8.736;2022-09-09T17:09:53;15.40;99.90
28484;DHT22;15704;48.834;8.736;2022-09-09T17:13:36;15.20;99.90
28484;DHT22;15704;48.834;8.736;2022-09-09T17:17:19;15.20;99.90
28484;DHT22;15704;48.834;8.736;2022-09-09T17:21:15;15.10;99.90
28484;DHT22;15704;48.834;8.736;2022-09-09T17:24:59;15.10;99.90
28484;DHT22;15704;48.834;8.736;2022-09-09T17:28:43;15.00;99.90
28484;DHT22;15704;48.834;8.736;2022-09-09T17:32:26;14.90;99.90
28484;DHT22;15704;48.834;8.736;2022-09-09T17:36:10;14.90;99.90
28484;DHT22;15704;48.834;8.736;2022-09-09T17:39:54;14.80;99.90
28484;DHT22;15704;48.834;8.736;2022-09-09T17:43:38;14.80;99.90
28484;DHT22;15704;48.834;8.736;2022-09-09T17:47:21;14.80;99.90
28484;DHT22;15704;48.834;8.736;2022-09-09T17:51:06;14.80;99.90
28484;DHT22;15704;48.834;8.736;2022-09-09T17:54:49;14.80;99.90
28484;DHT22;15704;48.834;8.736;2022-09-09T17:58:33;14.80;99.90
28484;DHT22;15704;48.834;8.736;2022-09-09T18:02:16;14.70;99.90
28484;DHT22;15704;48.834;8.736;2022-09-09T18:06:00;14.60;99.90
28484;DHT22;15704;48.834;8.736;2022-09-09T18:09:43;14.50;99.90
28484;DHT22;15704;48.834;8.736;2022-09-09T18:13:27;14.40;99.90
28484;DHT22;15704;48.834;8.736;2022-09-09T18:17:11;14.20;99.90
28484;DHT22;15704;48.834;8.736;2022-09-09T18:20:58;14.20;99.90
28484;DHT22;15704;48.834;8.736;2022-09-09T18:24:42;14.10;99.90
28484;DHT22;15704;48.834;8.736;2022-09-09T18:28:28;13.90;99.90
28484;DHT22;15704;48.834;8.736;2022-09-09T18:32:12;13.80;99.90
28484;DHT22;15704;48.834;8.736;2022-09-09T18:35:57;13.80;99.90
28484;DHT22;15704;48.834;8.736;2022-09-09T18:39:45;13.60;99.90
28484;DHT22;15704;48.834;8.736;2022-09-09T18:43:28;13.60;99.90
28484;DHT22;15704;48.834;8.736;2022-09-09T18:47:12;13.50;99.90
28484;DHT22;15704;48.834;8.736;2022-09-09T18:50:55;13.50;99.90
28484;DHT22;15704;48.834;8.736;2022-09-09T18:54:38;13.50;99.90
28484;DHT22;15704;48.834;8.736;2022-09-09T18:58:24;13.40;99.90
28484;DHT22;15704;48.834;8.736;2022-09-09T19:02:08;13.30;99.90
28484;DHT22;15704;48.834;8.736;2022-09-09T19:06:00;13.30;99.90
28484;DHT22;15704;48.834;8.736;2022-09-09T19:09:44;13.20;99.90
28484;DHT22;15704;48.834;8.736;2022-09-09T19:13:26;13.30;99.90
28484;DHT22;15704;48.834;8.736;2022-09-09T19:17:09;13.30;99.90
28484;DHT22;15704;48.834;8.736;2022-09-09T19:20:55;13.40;99.90
28484;DHT22;15704;48.834;8.736;2022-09-09T19:24:37;13.30;99.90
28484;DHT22;15704;48.834;8.736;2022-09-09T19:28:20;13.30;99.90
28484;DHT22;15704;48.834;8.736;2022-09-09T19:32:03;13.30;99.90
28484;DHT22;15704;48.834;8.736;2022-09-09T19:36:09;13.30;99.90
28484;DHT22;15704;48.834;8.736;2022-09-09T19:39:52;13.40;99.90
28484;DHT22;15704;48.834;8.736;2022-09-09T19:43:36;13.30;99.90
28484;DHT22;15704;48.834;8.736;2022-09-09T19:47:18;13.30;99.90
28484;DHT22;15704;48.834;8.736;2022-09-09T19:51:05;13.30;99.90
28484;DHT22;15704;48.834;8.736;2022-09-09T19:54:51;13.30;99.90
28484;DHT22;15704;48.834;8.736;2022-09-09T19:58:34;13.30;99.90
28484;DHT22;15704;48.834;8.736;2022-09-09T20:02:20;13.40;99.90
28484;DHT22;15704;48.834;8.736;2022-09-09T20:06:03;13.40;99.90
28484;DHT22;15704;48.834;8.736;2022-09-09T20:09:47;13.40;99.90
28484;DHT22;15704;48.834;8.736;2022-09-09T20:13:34;13.60;99.90
28484;DHT22;15704;48.834;8.736;2022-09-09T20:17:17;13.60;99.90
28484;DHT22;15704;48.834;8.736;2022-09-09T20:21:02;13.70;99.90
28484;DHT22;15704;48.834;8.736;2022-09-09T20:24:46;13.80;99.90
28484;DHT22;15704;48.834;8.736;2022-09-09T20:28:28;13.90;99.90
28484;DHT22;15704;48.834;8.736;2022-09-09T20:32:12;14.00;99.90
28484;DHT22;15704;48.834;8.736;2022-09-09T20:35:55;14.00;99.90
28484;DHT22;15704;48.834;8.736;2022-09-09T20:39:38;13.90;99.90
28484;DHT22;15704;48.834;8.736;2022-09-09T20:43:21;13.80;99.90
28484;DHT22;15704;48.834;8.736;2022-09-09T20:47:04;13.70;99.90
28484;DHT22;15704;48.834;8.736;2022-09-09T20:50:49;13.60;99.90
28484;DHT22;15704;48.834;8.736;2022-09-09T20:54:31;13.40;99.90
28484;DHT22;15704;48.834;8.736;2022-09-09T20:58:16;13.30;99.90
28484;DHT22;15704;48.834;8.736;2022-09-09T21:01:58;13.20;99.90
28484;DHT22;15704;48.834;8.736;2022-09-09T21:05:42;13.10;99.90
28484;DHT22;15704;48.834;8.736;2022-09-09T21:09:26;13.00;99.90
28484;DHT22;15704;48.834;8.736;2022-09-09T21:13:09;12.90;99.90
28484;DHT22;15704;48.834;8.736;2022-09-09T21:16:52;12.90;99.90
28484;DHT22;15704;48.834;8.736;2022-09-09T21:20:35;12.90;99.90
28484;DHT22;15704;48.834;8.736;2022-09-09T21:24:18;12.90;99.90
28484;DHT22;15704;48.834;8.736;2022-09-09T21:28:02;12.90;99.90
28484;DHT22;15704;48.834;8.736;2022-09-09T21:31:45;12.80;99.90
28484;DHT22;15704;48.834;8.736;2022-09-09T21:35:29;12.80;99.90
28484;DHT22;15704;48.834;8.736;2022-09-09T21:39:11;12.80;99.90
28484;DHT22;15704;48.834;8.736;2022-09-09T21:42:54;12.90;99.90
28484;DHT22;15704;48.834;8.736;2022-09-09T21:46:38;12.90;99.90
28484;DHT22;15704;48.834;8.736;2022-09-09T21:50:22;12.90;99.90
28484;DHT22;15704;48.834;8.736;2022-09-09T21:54:09;12.90;99.90
28484;DHT22;15704;48.834;8.736;2022-09-09T21:57:51;12.90;99.90
28484;DHT22;15704;48.834;8.736;2022-09-09T22:01:35;13.00;99.90
28484;DHT22;15704;48.834;8.736;2022-09-09T22:05:19;13.10;99.90
28484;DHT22;15704;48.834;8.736;2022-09-09T22:09:01;13.30;99.90
28484;DHT22;15704;48.834;8.736;2022-09-09T22:12:44;13.40;99.90
28484;DHT22;15704;48.834;8.736;2022-09-09T22:16:27;13.50;99.90
28484;DHT22;15704;48.834;8.736;2022-09-09T22:20:09;13.60;99.90
28484;DHT22;15704;48.834;8.736;2022-09-09T22:23:54;13.60;99.90
28484;DHT22;15704;48.834;8.736;2022-09-09T22:27:37;13.60;99.90
28484;DHT22;15704;48.834;8.736;2022-09-09T22:31:20;13.60;99.90
28484;DHT22;15704;48.834;8.736;2022-09-09T22:35:04;13.60;99.90
28484;DHT22;15704;48.834;8.736;2022-09-09T22:52:53;13.10;99.90
28484;DHT22;15704;48.834;8.736;2022-09-09T22:56:36;13.00;99.90
28484;DHT22;15704;48.834;8.736;2022-09-09T23:00:19;13.00;99.90
28484;DHT22;15704;48.834;8.736;2022-09-09T23:04:02;13.10;99.90
28484;DHT22;15704;48.834;8.736;2022-09-09T23:07:45;13.20;99.90
28484;DHT22;15704;48.834;8.736;2022-09-09T23:11:31;13.30;99.90
28484;DHT22;15704;48.834;8.736;2022-09-09T23:15:14;13.30;99.90
28484;DHT22;15704;48.834;8.736;2022-09-09T23:18:58;13.30;99.90
28484;DHT22;15704;48.834;8.736;2022-09-09T23:22:41;13.40;99.90
28484;DHT22;15704;48.834;8.736;2022-09-09T23:26:25;13.30;99.90
28484;DHT22;15704;48.834;8.736;2022-09-09T23:30:12;13.30;99.90
28484;DHT22;15704;48.834;8.736;2022-09-09T23:33:55;13.40;99.90
28484;DHT22;15704;48.834;8.736;2022-09-09T23:37:39;13.40;99.90
28484;DHT22;15704;48.834;8.736;2022-09-09T23:41:22;13.30;99.90
28484;DHT22;15704;48.834;8.736;2022-09-09T23:45:06;13.30;99.90
28484;DHT22;15704;48.834;8.736;2022-09-09T23:48:50;13.40;99.90
28484;DHT22;15704;48.834;8.736;2022-09-09T23:52:33;13.30;99.90
28484;DHT22;15704;48.834;8.736;2022-09-09T23:56:18;13.40;99.90
